Time;durP1;ratioP1;P1;durP2;ratioP2;P2;SDS_P1;SDS_P2;PMS_P1;PMS_P2;Temp;Humidity;BMP_temperature;BMP_pressure;BME280_temperature;BME280_humidity;BME280_pressure;Samples;Min_cycle;Max_cycle;Signal;HPM_P1;HPM_P2
2024/04/08 00:02:15;;;;;;;;;;;16.30;99.90;;;17.00;68.32;100013.41;5057249;28;19956;-84
2024/04/08 00:04:44;;;;;;;;;;;16.30;99.90;;;16.97;68.60;100014.72;5075280;28;20302;-84
2024/04/08 00:07:10;;;;;;;;;;;16.20;99.90;;;16.98;68.47;100029.84;5092905;28;19924;-84
2024/04/08 00:09:37;;;;;;;;;;;16.20;99.90;;;16.97;68.53;100036.28;5075083;28;19931;-82
2024/04/08 00:12:06;;;;;;;;;;;16.20;99.90;;;16.96;69.14;100023.88;5090509;28;19932;-84
2024/04/08 00:14:32;;;;;;;;;;;16.20;99.90;;;16.94;68.89;100028.75;5079093;28;19982;-84
2024/04/08 00:16:59;;;;;;;;;;;16.20;99.90;;;16.95;69.23;100029.53;5089401;28;19946;-83
2024/04/08 00:19:26;;;;;;;;;;;16.20;99.90;;;16.95;69.18;100030.34;5096217;28;19928;-84
2024/04/08 00:21:54;;;;;;;;;;;16.20;99.90;;;16.94;69.42;100039.50;5097721;28;20482;-84
2024/04/08 00:24:20;;;;;;;;;;;16.20;99.90;;;16.95;69.35;100038.44;5097340;28;20391;-84
2024/04/08 00:26:48;;;;;;;;;;;16.20;99.90;;;16.94;69.58;100033.31;5093616;28;19925;-84
2024/04/08 00:29:14;;;;;;;;;;;16.20;99.90;;;16.93;69.85;100026.28;5092894;28;19964;-84
2024/04/08 00:31:41;;;;;;;;;;;16.20;99.90;;;16.93;69.54;100021.75;5058886;28;19925;-84
2024/04/08 00:34:07;;;;;;;;;;;16.20;99.90;;;16.91;69.83;100010.41;5078376;28;19925;-84
2024/04/08 00:36:34;;;;;;;;;;;16.20;99.90;;;16.91;69.88;100017.66;5077290;28;19924;-84
2024/04/08 00:39:06;;;;;;;;;;;16.20;99.90;;;16.92;70.37;100019.28;5075911;28;19966;-84
2024/04/08 00:41:33;;;;;;;;;;;16.20;99.90;;;16.89;69.83;100012.56;5075522;28;19974;-84
2024/04/08 00:43:59;;;;;;;;;;;16.20;99.90;;;16.88;70.26;100010.91;5075525;28;20382;-84
2024/04/08 00:46:27;;;;;;;;;;;16.20;99.90;;;16.85;70.85;100006.06;5095936;28;20412;-84
2024/04/08 00:48:54;;;;;;;;;;;16.10;99.90;;;16.84;70.48;100015.22;5095472;28;19928;-84
2024/04/08 00:51:23;;;;;;;;;;;16.10;99.90;;;16.84;70.19;100020.63;5097581;28;19924;-84
2024/04/08 00:53:51;;;;;;;;;;;16.10;99.90;;;16.82;70.27;100035.41;5091293;28;19924;-84
2024/04/08 00:56:20;;;;;;;;;;;16.10;99.90;;;16.81;70.44;100045.38;5078417;28;19928;-84
2024/04/08 00:58:47;;;;;;;;;;;16.10;99.90;;;16.79;70.63;100034.06;5085912;28;19956;-84
2024/04/08 01:01:17;;;;;;;;;;;16.10;99.90;;;16.78;70.81;100028.91;5080302;28;19924;-84
2024/04/08 01:03:44;;;;;;;;;;;16.10;99.90;;;16.78;70.87;100027.03;5076931;28;19928;-84
2024/04/08 01:06:12;;;;;;;;;;;16.10;99.90;;;16.75;70.84;100024.88;5077984;28;20300;-84
2024/04/08 01:08:39;;;;;;;;;;;16.00;99.90;;;16.77;71.11;100035.38;5081424;28;19932;-84
2024/04/08 01:11:07;;;;;;;;;;;16.10;99.90;;;16.75;70.83;100032.97;5089922;28;19932;-84
2024/04/08 01:13:34;;;;;;;;;;;16.10;99.90;;;16.73;70.54;100027.00;5073411;28;20026;-84
2024/04/08 01:16:02;;;;;;;;;;;16.10;99.90;;;16.71;70.47;100023.75;5099446;28;20453;-84
2024/04/08 01:18:28;;;;;;;;;;;16.00;99.90;;;16.73;70.57;100029.72;5099385;28;19930;-84
2024/04/08 01:20:56;;;;;;;;;;;16.10;99.90;;;16.73;70.52;100027.81;5081631;28;19925;-84
2024/04/08 01:23:24;;;;;;;;;;;16.10;99.90;;;16.76;70.75;100031.09;5081470;28;20027;-84
2024/04/08 01:25:53;;;;;;;;;;;16.10;99.90;;;16.73;70.79;100025.13;5084839;28;20015;-84
2024/04/08 01:28:20;;;;;;;;;;;16.00;99.90;;;16.71;70.39;100024.59;5095744;28;19924;-84
2024/04/08 01:30:49;;;;;;;;;;;16.00;99.90;;;16.71;70.56;100002.22;5078864;28;19931;-84
2024/04/08 01:33:16;;;;;;;;;;;16.00;99.90;;;16.69;70.48;99997.09;5090507;28;19968;-83
2024/04/08 01:35:43;;;;;;;;;;;16.00;99.90;;;16.70;70.35;100004.09;5062157;28;20348;-84
2024/04/08 01:38:11;;;;;;;;;;;16.00;99.90;;;16.66;70.64;99994.91;5082454;28;19974;-84
2024/04/08 01:40:38;;;;;;;;;;;16.00;99.90;;;16.64;71.16;100001.63;5080533;28;20512;-84
2024/04/08 01:43:06;;;;;;;;;;;15.90;99.90;;;16.62;71.12;99998.41;5082027;28;19924;-84
2024/04/08 01:45:33;;;;;;;;;;;15.90;99.90;;;16.65;71.17;100016.75;5080678;28;19928;-84
2024/04/08 01:48:00;;;;;;;;;;;15.90;99.90;;;16.65;71.32;100022.94;5062219;28;19925;-84
2024/04/08 01:50:27;;;;;;;;;;;15.90;99.90;;;16.65;71.11;100012.16;5081741;28;19928;-84
2024/04/08 01:52:53;;;;;;;;;;;16.00;99.90;;;16.63;71.42;100002.72;5087111;28;19990;-83
2024/04/08 01:55:20;;;;;;;;;;;15.90;99.90;;;16.59;70.98;99994.38;5096681;28;19924;-82
2024/04/08 01:57:49;;;;;;;;;;;15.90;99.90;;;16.60;70.94;99987.91;5084816;28;19932;-84
2024/04/08 02:00:18;;;;;;;;;;;15.90;99.90;;;16.53;71.36;99971.16;5062538;28;19924;-84
2024/04/08 02:02:44;;;;;;;;;;;15.90;99.90;;;16.54;71.30;99959.31;5061645;28;19959;-84
2024/04/08 02:05:12;;;;;;;;;;;15.90;99.90;;;16.56;71.22;99951.00;5064667;28;19924;-84
2024/04/08 02:07:39;;;;;;;;;;;15.90;99.90;;;16.56;71.16;99949.13;5080319;28;19924;-84
2024/04/08 02:10:07;;;;;;;;;;;15.90;99.90;;;16.55;71.15;99941.31;5090807;28;19924;-84
2024/04/08 02:12:33;;;;;;;;;;;15.90;99.90;;;16.55;70.97;99944.81;5083945;28;20395;-84
2024/04/08 02:15:01;;;;;;;;;;;15.90;99.90;;;16.57;71.19;99963.38;5092328;28;19931;-84
2024/04/08 02:17:28;;;;;;;;;;;15.90;99.90;;;16.56;71.21;99967.97;5080969;28;20050;-84
2024/04/08 02:19:56;;;;;;;;;;;15.90;99.90;;;16.54;71.32;99958.50;5097776;28;19946;-84
2024/04/08 02:22:23;;;;;;;;;;;15.80;99.90;;;16.53;71.32;99964.97;5079563;28;19932;-84
2024/04/08 02:24:50;;;;;;;;;;;15.80;99.90;;;16.50;71.00;99955.56;5078171;28;19932;-84
2024/04/08 02:27:16;;;;;;;;;;;15.80;99.90;;;16.46;70.69;99949.88;5088881;28;19988;-84
2024/04/08 02:29:43;;;;;;;;;;;15.70;99.90;;;16.44;71.03;99941.25;5082651;28;20018;-84
2024/04/08 02:32:10;;;;;;;;;;;15.70;99.90;;;16.43;70.92;99939.63;5085822;28;19923;-84
2024/04/08 02:34:40;;;;;;;;;;;15.70;99.90;;;16.41;71.00;99935.59;5081554;28;20310;-83
2024/04/08 02:37:06;;;;;;;;;;;15.70;99.90;;;16.40;70.88;99929.41;5078833;28;20306;-84
2024/04/08 02:39:33;;;;;;;;;;;15.60;99.90;;;16.38;70.84;99923.47;5083323;28;19924;-84
2024/04/08 02:42:00;;;;;;;;;;;15.60;99.90;;;16.35;70.52;99926.69;5077880;28;19924;-84
2024/04/08 02:44:27;;;;;;;;;;;15.60;99.90;;;16.33;70.79;99930.72;5092322;28;19946;-84
2024/04/08 02:46:53;;;;;;;;;;;15.60;99.90;;;16.33;70.92;99922.63;5095315;28;20015;-84
2024/04/08 02:49:20;;;;;;;;;;;15.60;99.90;;;16.30;70.46;99915.06;5098215;28;19931;-84
2024/04/08 02:51:48;;;;;;;;;;;15.60;99.90;;;16.27;70.22;99907.53;5089216;28;20399;-84
2024/04/08 02:54:15;;;;;;;;;;;15.50;99.90;;;16.23;70.62;99915.31;5084609;28;19940;-84
2024/04/08 02:56:41;;;;;;;;;;;15.50;99.90;;;16.19;70.23;99923.09;5078596;28;20003;-84
2024/04/08 02:59:08;;;;;;;;;;;15.50;99.90;;;16.15;69.94;99918.50;5060922;28;19924;-84
2024/04/08 03:01:35;;;;;;;;;;;15.40;99.90;;;16.16;70.11;99920.94;5067804;28;19980;-84
2024/04/08 03:04:02;;;;;;;;;;;15.40;99.90;;;16.15;70.31;99916.66;5096803;28;19924;-84
2024/04/08 03:06:29;;;;;;;;;;;15.40;99.90;;;16.14;70.25;99911.50;5054282;28;20007;-84
2024/04/08 03:08:58;;;;;;;;;;;15.40;99.90;;;16.14;70.39;99911.50;5095816;28;19924;-84
2024/04/08 03:11:24;;;;;;;;;;;15.40;99.90;;;16.10;70.23;99910.41;5097184;28;19924;-83
2024/04/08 03:13:51;;;;;;;;;;;15.40;99.90;;;16.06;70.24;99896.69;5095625;28;19925;-84
2024/04/08 03:16:17;;;;;;;;;;;15.30;99.90;;;16.02;70.27;99884.81;5097192;28;19966;-84
2024/04/08 03:18:46;;;;;;;;;;;15.30;99.90;;;16.01;70.03;99877.03;5094411;28;20408;-84
2024/04/08 03:21:12;;;;;;;;;;;15.20;99.90;;;15.97;69.96;99868.66;5098108;28;19986;-84
2024/04/08 03:23:39;;;;;;;;;;;15.20;99.90;;;15.95;69.97;99868.09;5095109;28;19931;-84
2024/04/08 03:26:08;;;;;;;;;;;15.20;99.90;;;15.90;69.81;99868.06;5076873;28;20313;-82
2024/04/08 03:28:35;;;;;;;;;;;15.10;99.90;;;15.89;69.96;99875.34;5086592;28;19924;-84
2024/04/08 03:31:03;;;;;;;;;;;15.10;99.90;;;15.89;69.62;99872.66;5094912;28;19931;-84
2024/04/08 03:33:30;;;;;;;;;;;15.10;99.90;;;15.87;69.44;99872.09;5088301;28;20023;-84
2024/04/08 03:35:56;;;;;;;;;;;15.10;99.90;;;15.88;69.79;99867.53;5078813;28;20333;-84
2024/04/08 03:38:23;;;;;;;;;;;15.10;99.90;;;15.88;70.28;99873.72;5059370;28;19970;-84
2024/04/08 03:40:58;;;;;;;;;;;15.10;99.90;;;15.89;70.26;99869.97;5082708;28;19924;-84
2024/04/08 03:43:27;;;;;;;;;;;15.10;99.90;;;15.89;70.14;99886.09;5093029;28;19925;-83
2024/04/08 03:45:57;;;;;;;;;;;15.10;99.90;;;15.86;69.67;99889.31;5113071;28;19930;-84
2024/04/08 03:48:24;;;;;;;;;;;15.10;99.90;;;15.84;69.79;99888.75;5094408;28;19928;-84
2024/04/08 03:50:50;;;;;;;;;;;15.10;99.90;;;15.80;69.93;99884.97;5091641;28;19931;-84
2024/04/08 03:53:17;;;;;;;;;;;15.10;99.90;;;15.80;69.81;99890.34;5077061;28;19928;-83
2024/04/08 03:57:38;;;;;;;;;;;15.10;99.90;;;15.78;70.06;99889.81;5512479;25;19963;-82
2024/04/08 04:00:06;;;;;;;;;;;15.00;99.90;;;15.76;70.10;99883.84;5512287;25;20021;-82
2024/04/08 04:02:35;;;;;;;;;;;15.00;99.90;;;15.73;70.07;99879.00;5512907;26;19936;-83
2024/04/08 04:05:03;;;;;;;;;;;15.00;99.90;;;15.71;70.12;99870.38;5467146;26;19960;-85
2024/04/08 04:07:31;;;;;;;;;;;14.90;99.90;;;15.68;69.97;99868.22;5427816;26;19935;-86
2024/04/08 04:10:04;;;;;;;;;;;14.90;99.90;;;15.66;69.96;99865.81;5463491;26;19929;-85
2024/04/08 04:12:39;;;;;;;;;;;14.90;99.90;;;15.64;69.62;99846.44;5472224;26;20391;-85
2024/04/08 04:15:06;;;;;;;;;;;14.90;99.90;;;15.62;69.77;99843.16;5451912;26;20023;-87
2024/04/08 04:17:36;;;;;;;;;;;14.90;99.90;;;15.63;70.18;99838.59;5435729;26;20342;-85
2024/04/08 04:20:03;;;;;;;;;;;14.90;99.90;;;15.64;70.75;99848.31;5441715;26;20371;-86
2024/04/08 04:22:33;;;;;;;;;;;14.90;99.90;;;15.65;70.79;99844.53;5474307;26;19956;-85
2024/04/08 04:25:00;;;;;;;;;;;14.90;99.90;;;15.66;70.56;99851.53;5471759;26;19929;-84
2024/04/08 04:27:29;;;;;;;;;;;14.90;99.90;;;15.64;70.45;99851.00;5530396;25;19974;-85
2024/04/08 04:29:58;;;;;;;;;;;14.90;99.90;;;15.60;69.70;99845.28;5456885;26;20372;-85
2024/04/08 04:32:27;;;;;;;;;;;14.90;99.90;;;15.55;70.19;99844.44;5533399;25;19928;-85
2024/04/08 04:34:54;;;;;;;;;;;14.80;99.90;;;15.56;69.92;99832.63;5472945;26;19928;-84
2024/04/08 04:37:23;;;;;;;;;;;14.80;99.90;;;15.58;70.50;99839.38;5533236;25;19997;-84
2024/04/08 04:39:53;;;;;;;;;;;14.80;99.90;;;15.58;70.46;99844.75;5535036;25;20269;-84
2024/04/08 04:42:21;;;;;;;;;;;14.90;99.90;;;15.56;70.39;99854.13;5474571;26;19928;-82
2024/04/08 04:44:48;;;;;;;;;;;14.90;99.90;;;15.56;70.14;99856.81;5474408;26;19928;-83
2024/04/08 04:47:19;;;;;;;;;;;14.80;99.90;;;15.55;69.72;99847.94;5441540;26;19936;-80
2024/04/08 04:49:46;;;;;;;;;;;14.80;99.90;;;15.53;69.98;99846.59;5458853;26;19928;-83
2024/04/08 04:52:15;;;;;;;;;;;14.80;99.90;;;15.53;70.48;99838.53;5445682;26;19936;-84
2024/04/08 04:54:41;;;;;;;;;;;14.80;99.90;;;15.54;70.71;99832.09;5501174;25;19929;-83
2024/04/08 04:57:10;;;;;;;;;;;14.80;99.90;;;15.52;70.68;99837.72;5433720;26;19998;-83
2024/04/08 04:59:37;;;;;;;;;;;14.80;99.90;;;15.49;70.73;99832.88;5376759;26;19936;-83
2024/04/08 05:02:07;;;;;;;;;;;14.80;99.90;;;15.48;70.80;99831.25;5460967;26;20365;-82
2024/04/08 05:04:36;;;;;;;;;;;14.80;99.90;;;15.50;70.68;99834.47;5437292;26;19987;-85
2024/04/08 05:07:05;;;;;;;;;;;14.80;99.90;;;15.51;71.19;99836.09;5310383;26;19929;-84
2024/04/08 05:09:32;;;;;;;;;;;14.80;99.90;;;15.52;71.47;99847.66;5404552;26;20384;-85
2024/04/08 05:12:04;;;;;;;;;;;14.80;99.90;;;15.54;71.29;99856.28;5440542;26;19944;-84
2024/04/08 05:14:30;;;;;;;;;;;14.80;99.90;;;15.55;71.65;99847.94;5359059;26;19929;-85
2024/04/08 05:17:00;;;;;;;;;;;14.90;99.90;;;15.57;71.96;99853.88;5332335;26;19929;-85
2024/04/08 05:19:26;;;;;;;;;;;14.90;99.90;;;15.58;72.33;99854.69;5422815;26;19936;-85
2024/04/08 05:21:58;;;;;;;;;;;14.90;99.90;;;15.59;72.49;99849.06;5428913;26;19949;-85
2024/04/08 05:24:24;;;;;;;;;;;14.90;99.90;;;15.61;72.33;99843.41;5388528;26;20029;-85
2024/04/08 05:26:55;;;;;;;;;;;14.90;99.90;;;15.63;72.46;99830.53;5392352;26;20354;-85
2024/04/08 05:29:23;;;;;;;;;;;14.90;99.90;;;15.64;72.96;99832.97;5421515;26;20358;-85
2024/04/08 05:31:52;;;;;;;;;;;15.00;99.90;;;15.66;72.66;99830.88;5422573;26;20393;-85
2024/04/08 05:34:21;;;;;;;;;;;15.00;99.90;;;15.66;72.90;99832.72;5381820;26;19929;-85
2024/04/08 05:36:50;;;;;;;;;;;15.00;99.90;;;15.68;72.98;99844.03;5369302;26;20392;-85
2024/04/08 05:39:19;;;;;;;;;;;15.00;99.90;;;15.70;73.12;99845.38;5359810;26;19930;-85
2024/04/08 05:41:48;;;;;;;;;;;15.10;99.90;;;15.73;73.07;99845.94;5337802;26;19934;-85
2024/04/08 05:44:14;;;;;;;;;;;15.10;99.90;;;15.77;73.44;99853.22;5398923;26;19929;-85
2024/04/08 05:46:43;;;;;;;;;;;15.30;99.90;;;15.80;73.29;99833.88;5386320;26;19929;-85
2024/04/08 05:49:09;;;;;;;;;;;15.50;99.90;;;15.86;73.50;99837.38;5422663;26;19929;-85
2024/04/08 05:51:38;;;;;;;;;;;15.60;99.90;;;15.90;73.50;99839.28;5389019;26;20397;-83
2024/04/08 05:54:04;;;;;;;;;;;15.50;99.90;;;15.94;73.76;99839.59;5388121;26;20380;-85
2024/04/08 05:56:36;;;;;;;;;;;15.60;99.90;;;15.99;73.58;99831.53;5422291;26;19961;-85
2024/04/08 05:59:02;;;;;;;;;;;15.60;99.90;;;15.99;73.43;99838.81;5418910;26;20482;-85
2024/04/08 06:01:32;;;;;;;;;;;15.60;99.90;;;15.97;73.13;99822.94;5362724;26;20370;-85
2024/04/08 06:03:58;;;;;;;;;;;15.60;99.90;;;15.94;73.26;99829.63;5393596;26;20399;-85
2024/04/08 06:06:27;;;;;;;;;;;15.50;99.90;;;15.89;72.55;99824.25;5369171;26;20027;-85
2024/04/08 06:09:03;;;;;;;;;;;15.50;99.90;;;15.89;73.08;99834.19;5386755;26;19949;-85
2024/04/08 06:11:32;;;;;;;;;;;15.50;99.90;;;15.89;72.95;99826.13;5409335;26;19929;-85
2024/04/08 06:14:00;;;;;;;;;;;15.40;99.90;;;15.91;73.29;99824.00;5390624;26;19936;-85
2024/04/08 06:16:29;;;;;;;;;;;15.50;99.90;;;15.92;72.99;99818.34;5423012;26;20441;-85
2024/04/08 06:18:56;;;;;;;;;;;15.50;99.90;;;15.96;73.27;99810.56;5421087;26;19955;-85
2024/04/08 06:21:24;;;;;;;;;;;15.50;99.90;;;15.99;73.10;99815.41;5421304;26;19929;-85
2024/04/08 06:23:51;;;;;;;;;;;15.50;99.90;;;16.03;73.17;99827.25;5421779;26;19936;-85
2024/04/08 06:26:20;;;;;;;;;;;15.60;99.90;;;16.10;73.52;99837.78;5451390;26;19929;-85
2024/04/08 06:28:47;;;;;;;;;;;15.60;99.90;;;16.12;73.56;99835.63;5424070;26;19936;-85
2024/04/08 06:31:18;;;;;;;;;;;15.70;99.90;;;16.13;73.27;99826.50;5423248;26;19929;-85
2024/04/08 06:33:47;;;;;;;;;;;15.70;99.90;;;16.17;73.76;99827.59;5449826;26;20012;-86
2024/04/08 06:36:17;;;;;;;;;;;15.80;99.90;;;16.23;74.00;99830.03;5388698;26;19929;-86
2024/04/08 06:38:43;;;;;;;;;;;15.90;99.90;;;16.31;74.43;99833.28;5390956;26;19929;-85
2024/04/08 06:41:12;;;;;;;;;;;16.00;99.90;;;16.37;72.79;99833.03;5391971;26;19937;-85
2024/04/08 06:43:38;;;;;;;;;;;16.00;99.90;;;16.37;72.80;99830.34;5424365;26;19929;-85
2024/04/08 06:46:07;;;;;;;;;;;16.10;99.90;;;16.45;72.57;99835.22;5449218;26;20321;-84
2024/04/08 06:48:36;;;;;;;;;;;16.10;99.90;;;16.55;72.08;99839.00;5422534;26;19935;-85
2024/04/08 06:51:06;;;;;;;;;;;16.20;99.90;;;16.64;72.84;99840.06;5451328;26;19944;-85
2024/04/08 06:53:32;;;;;;;;;;;16.30;99.90;;;16.67;72.50;99826.91;5424007;26;19929;-85
2024/04/08 06:56:01;;;;;;;;;;;16.30;99.90;;;16.72;72.19;99828.81;5422240;26;20408;-85
2024/04/08 06:58:27;;;;;;;;;;;16.40;99.90;;;16.81;71.77;99819.13;5392152;26;19936;-85
2024/04/08 07:00:56;;;;;;;;;;;16.50;99.90;;;16.89;71.53;99812.41;5390824;26;19929;-85
2024/04/08 07:03:22;;;;;;;;;;;16.50;99.90;;;16.96;71.98;99821.84;5390836;26;20268;-85
2024/04/08 07:05:53;;;;;;;;;;;16.70;99.90;;;16.87;70.38;99825.34;5422270;26;19929;-85
2024/04/08 07:08:20;;;;;;;;;;;16.60;99.90;;;16.90;70.74;99824.81;5391905;26;19929;-85
2024/04/08 07:10:49;;;;;;;;;;;16.60;99.90;;;16.88;70.94;99819.66;5422727;26;20264;-85
2024/04/08 07:13:17;;;;;;;;;;;16.60;99.90;;;16.89;70.80;99815.91;5451486;26;19941;-84
2024/04/08 07:15:45;;;;;;;;;;;16.60;99.90;;;16.93;70.87;99810.78;5451068;26;19936;-85
2024/04/08 07:18:14;;;;;;;;;;;16.60;99.90;;;16.96;70.93;99810.25;5391587;26;20272;-85
2024/04/08 07:20:41;;;;;;;;;;;16.70;99.90;;;16.96;70.67;99805.69;5362810;26;19933;-85
2024/04/08 07:23:13;;;;;;;;;;;16.70;99.90;;;17.03;71.00;99785.72;5421964;26;20384;-85
2024/04/08 07:25:39;;;;;;;;;;;16.80;99.90;;;17.06;71.51;99779.81;5423223;26;19929;-85
2024/04/08 07:28:08;;;;;;;;;;;16.80;99.90;;;17.11;71.69;99766.34;5449806;26;19936;-85
2024/04/08 07:30:35;;;;;;;;;;;16.80;99.90;;;17.03;70.59;99765.00;5419032;26;20457;-85
2024/04/08 07:33:04;;;;;;;;;;;16.80;99.90;;;17.07;70.85;99776.03;5421705;26;20280;-85
2024/04/08 07:35:31;;;;;;;;;;;16.80;99.90;;;17.08;71.20;99777.63;5423181;26;19968;-85
2024/04/08 07:37:59;;;;;;;;;;;16.80;99.90;;;17.14;71.19;99792.75;5422553;26;19929;-85
2024/04/08 07:40:28;;;;;;;;;;;16.90;99.90;;;17.20;71.13;99786.25;5450235;26;20002;-85
2024/04/08 07:42:57;;;;;;;;;;;16.90;99.90;;;17.28;71.56;99784.91;5390486;26;19929;-85
2024/04/08 07:45:24;;;;;;;;;;;17.00;99.90;;;17.29;70.55;99791.91;5361916;26;19933;-85
2024/04/08 07:47:53;;;;;;;;;;;17.00;99.90;;;17.36;70.81;99803.22;5390246;26;19929;-85
2024/04/08 07:50:20;;;;;;;;;;;17.10;99.90;;;17.43;70.14;99806.44;5422639;26;19933;-85
2024/04/08 07:52:49;;;;;;;;;;;17.10;99.90;;;17.47;69.96;99796.72;5390913;26;19929;-85
2024/04/08 07:55:17;;;;;;;;;;;17.20;99.90;;;17.41;69.90;99779.75;5420946;26;19935;-85
2024/04/08 07:57:49;;;;;;;;;;;17.10;99.90;;;17.47;69.20;99780.53;5421201;26;19929;-85
2024/04/08 08:00:16;;;;;;;;;;;17.20;99.90;;;17.56;69.58;99786.19;5421828;26;19929;-85
2024/04/08 08:02:45;;;;;;;;;;;17.30;99.90;;;17.61;69.70;99765.41;5390188;26;19933;-85
2024/04/08 08:05:11;;;;;;;;;;;17.40;99.90;;;17.60;68.29;99769.19;5361585;26;19928;-85
2024/04/08 08:07:40;;;;;;;;;;;17.40;99.90;;;17.58;68.16;99787.53;5421940;26;19936;-85
2024/04/08 08:10:10;;;;;;;;;;;17.40;99.90;;;17.61;68.96;99797.75;5422553;26;19929;-85
2024/04/08 08:12:39;;;;;;;;;;;17.40;99.90;;;17.63;68.42;99794.81;5391570;26;19929;-85
2024/04/08 08:15:13;;;;;;;;;;;17.40;99.90;;;17.55;67.83;99788.06;5333046;26;20257;-85
2024/04/08 08:17:42;;;;;;;;;;;17.30;99.90;;;17.49;68.51;99789.97;5421689;26;20031;-85
2024/04/08 08:20:12;;;;;;;;;;;17.30;99.90;;;17.50;68.69;99780.81;5421652;26;19929;-85
2024/04/08 08:22:41;;;;;;;;;;;17.30;99.90;;;17.55;69.72;99779.19;5390646;26;19929;-85
2024/04/08 08:25:10;;;;;;;;;;;17.40;99.90;;;17.64;69.65;99778.34;5330683;26;19940;-85
2024/04/08 08:27:39;;;;;;;;;;;17.50;99.90;;;17.77;69.09;99768.91;5390027;26;19937;-85
2024/04/08 08:30:12;;;;;;;;;;;17.60;99.90;;;17.86;70.15;99761.00;5361262;26;19929;-85
2024/04/08 08:32:41;;;;;;;;;;;17.70;99.90;;;17.93;70.02;99756.16;5391122;26;19929;-85
2024/04/08 08:35:13;;;;;;;;;;;17.80;99.90;;;17.93;68.81;99772.34;5389207;26;20363;-85
2024/04/08 08:37:40;;;;;;;;;;;17.80;99.90;;;17.96;69.09;99774.50;5421331;26;20264;-85
2024/04/08 08:40:10;;;;;;;;;;;17.90;99.90;;;17.93;68.25;99767.75;5365036;26;20389;-85
2024/04/08 08:42:37;;;;;;;;;;;17.90;99.90;;;17.96;68.19;99769.91;5386306;26;20369;-85
2024/04/08 08:45:08;;;;;;;;;;;17.90;99.90;;;18.03;68.52;99777.69;5388265;26;19957;-86
2024/04/08 08:47:38;;;;;;;;;;;17.90;99.90;;;18.07;69.41;99777.94;5358131;26;19936;-85
2024/04/08 08:50:08;;;;;;;;;;;18.00;99.90;;;18.06;69.38;99770.94;5387414;26;19936;-85
2024/04/08 08:52:35;;;;;;;;;;;18.00;99.90;;;18.05;68.51;99769.28;5387216;26;19937;-85
2024/04/08 08:55:04;;;;;;;;;;;17.90;99.90;;;18.04;69.06;99767.69;5355433;26;19937;-85
2024/04/08 08:57:33;;;;;;;;;;;17.90;99.90;;;17.99;67.91;99768.53;5384348;26;19929;-85
2024/04/08 09:00:02;;;;;;;;;;;17.90;99.90;;;17.94;67.61;99779.34;5384772;26;19937;-85
2024/04/08 09:02:33;;;;;;;;;;;17.80;99.90;;;17.90;67.53;99779.06;5386366;26;19936;-85
2024/04/08 09:05:02;;;;;;;;;;;17.70;99.90;;;18.00;68.01;99764.72;5384276;26;20003;-84
2024/04/08 09:07:31;;;;;;;;;;;17.80;99.90;;;18.06;69.59;99762.84;5384374;26;19937;-85
2024/04/08 09:09:58;;;;;;;;;;;18.00;99.90;;;18.13;70.58;99761.44;5384763;26;19941;-85
2024/04/08 09:12:30;;;;;;;;;;;18.10;99.90;;;18.15;68.96;99759.25;5384286;26;20300;-85
2024/04/08 09:14:57;;;;;;;;;;;18.20;99.90;;;18.13;68.55;99771.41;5443772;26;19930;-85
2024/04/08 09:17:26;;;;;;;;;;;18.20;99.90;;;18.19;70.62;99759.50;5418084;26;19929;-85
2024/04/08 09:19:52;;;;;;;;;;;18.30;99.90;;;18.23;68.59;99755.97;5384580;26;19936;-85
2024/04/08 09:22:25;;;;;;;;;;;18.30;99.90;;;18.21;69.32;99768.94;5383888;26;19936;-85
2024/04/08 09:24:51;;;;;;;;;;;18.30;99.90;;;18.26;68.96;99768.13;5443503;26;19937;-85
2024/04/08 09:27:20;;;;;;;;;;;18.40;99.90;;;18.31;68.60;99773.47;5383945;26;19930;-85
2024/04/08 09:29:47;;;;;;;;;;;18.50;99.90;;;18.35;70.23;99774.53;5355895;26;20408;-86
2024/04/08 09:32:17;;;;;;;;;;;18.50;99.90;;;18.40;68.95;99766.41;5384003;26;20268;-86
2024/04/08 09:34:44;;;;;;;;;;;18.60;99.90;;;18.50;69.36;99766.34;5385786;26;19945;-84
2024/04/08 09:37:17;;;;;;;;;;;18.70;99.90;;;18.56;68.51;99760.91;5419856;26;19937;-86
2024/04/08 09:39:47;;;;;;;;;;;18.70;99.90;;;18.62;67.30;99763.28;5406207;26;20017;-85
2024/04/08 09:42:18;;;;;;;;;;;18.80;99.90;;;18.63;67.12;99764.88;5389402;26;20381;-84
2024/04/08 09:44:46;;;;;;;;;;;18.80;99.90;;;18.64;67.45;99766.50;5388696;26;19937;-85
2024/04/08 09:47:15;;;;;;;;;;;18.80;99.90;;;18.69;68.04;99768.38;5354032;26;20395;-86
2024/04/08 09:49:42;;;;;;;;;;;18.80;99.90;;;18.71;68.28;99760.81;5413369;26;20266;-86
2024/04/08 09:52:15;;;;;;;;;;;18.80;99.90;;;18.76;68.55;99766.97;5442863;26;19999;-85
2024/04/08 09:54:41;;;;;;;;;;;18.90;99.90;;;18.80;67.75;99751.00;5382133;26;20276;-85
2024/04/08 09:57:16;;;;;;;;;;;19.00;99.90;;;18.83;66.31;99763.13;5389302;26;19929;-85
2024/04/08 09:59:42;;;;;;;;;;;18.90;99.90;;;18.69;64.84;99758.41;5420985;26;20371;-86
2024/04/08 10:02:17;;;;;;;;;;;18.90;99.90;;;18.67;64.96;99751.63;5419917;26;19941;-86
2024/04/08 10:04:43;;;;;;;;;;;18.90;99.90;;;18.73;67.38;99753.22;5419794;26;19941;-86
2024/04/08 10:07:13;;;;;;;;;;;18.90;99.90;;;18.83;67.41;99758.53;5420368;26;19936;-86
2024/04/08 10:09:39;;;;;;;;;;;19.00;99.90;;;18.92;66.63;99764.13;5417379;26;20278;-86
2024/04/08 10:12:09;;;;;;;;;;;19.00;99.90;;;18.89;65.55;99752.03;5417818;26;19945;-85
2024/04/08 10:14:42;;;;;;;;;;;19.10;99.90;;;18.93;66.35;99742.22;5388269;26;19929;-85
2024/04/08 10:17:11;;;;;;;;;;;19.10;99.90;;;18.99;68.11;99743.81;5447394;26;20304;-86
2024/04/08 10:19:40;;;;;;;;;;;19.20;99.90;;;19.06;67.07;99734.56;5418897;26;19929;-86
2024/04/08 10:22:12;;;;;;;;;;;19.20;99.90;;;19.02;65.84;99735.13;5359016;26;19937;-86
2024/04/08 10:24:38;;;;;;;;;;;19.20;99.90;;;19.08;67.90;99727.78;5417889;26;20019;-86
2024/04/08 10:27:11;;;;;;;;;;;19.20;99.90;;;19.11;65.38;99721.78;5388192;26;19979;-86
2024/04/08 10:29:43;;;;;;;;;;;19.30;99.90;;;19.13;64.07;99726.91;5419337;26;19929;-85
2024/04/08 10:32:12;;;;;;;;;;;19.30;99.90;;;19.11;64.90;99729.91;5419262;26;20023;-86
2024/04/08 10:34:41;;;;;;;;;;;19.30;99.90;;;19.14;65.79;99731.25;5419130;26;19936;-85
2024/04/08 10:37:10;;;;;;;;;;;19.30;99.90;;;19.21;65.88;99729.00;5419227;26;19998;-85
2024/04/08 10:39:37;;;;;;;;;;;19.40;99.90;;;19.27;66.90;99730.53;5419831;26;19928;-85
2024/04/08 10:42:15;;;;;;;;;;;19.40;99.90;;;19.30;65.30;99727.28;5417797;26;19937;-85
2024/04/08 10:44:44;;;;;;;;;;;19.50;99.90;;;19.37;65.80;99730.44;5420282;26;19929;-85
2024/04/08 10:47:13;;;;;;;;;;;19.50;99.90;;;19.40;64.88;99708.22;5420835;26;20059;-85
2024/04/08 10:49:40;;;;;;;;;;;19.50;99.90;;;19.45;65.06;99708.16;5419954;26;20377;-84
2024/04/08 10:52:12;;;;;;;;;;;19.60;99.90;;;19.48;64.64;99704.09;5389746;26;19940;-85
2024/04/08 10:54:39;;;;;;;;;;;19.70;99.90;;;19.51;64.21;99698.91;5448348;26;19974;-85
2024/04/08 10:57:08;;;;;;;;;;;19.70;99.90;;;19.56;63.70;99695.31;5473092;26;19975;-85
2024/04/08 10:59:34;;;;;;;;;;;19.80;99.90;;;19.58;64.00;99697.75;5420465;26;19929;-85
2024/04/08 11:02:10;;;;;;;;;;;19.80;99.90;;;19.56;62.51;99704.25;5478721;26;20281;-84
2024/04/08 11:04:36;;;;;;;;;;;19.80;99.90;;;19.55;61.63;99701.84;5330983;26;20389;-85
2024/04/08 11:07:05;;;;;;;;;;;19.70;99.90;;;19.55;62.09;99702.63;5419562;26;19929;-85
2024/04/08 11:09:35;;;;;;;;;;;19.70;99.90;;;19.58;62.10;99700.47;5418432;26;19971;-85
2024/04/08 11:12:06;;;;;;;;;;;19.80;99.90;;;19.58;61.99;99700.47;5418047;26;20002;-85
2024/04/08 11:14:32;;;;;;;;;;;19.80;99.90;;;19.55;60.82;99705.34;5418811;26;19929;-85
2024/04/08 11:17:11;;;;;;;;;;;19.70;99.90;;;19.58;62.13;99708.59;5389348;26;19929;-85
2024/04/08 11:19:39;;;;;;;;;;;19.80;99.90;;;19.63;61.43;99705.84;5390541;26;19944;-85
2024/04/08 11:22:10;;;;;;;;;;;19.80;99.90;;;19.54;60.62;99703.75;5418933;26;19937;-85
2024/04/08 11:24:40;;;;;;;;;;;19.80;99.90;;;19.56;60.60;99690.72;5418484;26;19940;-85